TGW4208 YSCB-YSSY
Flight info
| Callsign | TGW4208 |
|---|---|
| Flight time | 0h 34m |
| Altitude | 21000 |
| Route | CULIN Y59 RIVET |
| Aircraft | E190/M-SDE3GILORVW/S |
Departure
| Time | 2026-04-25 02:54 |
|---|---|
| Airport | Canberra Airport (YSCB) |
Arrival
| Time | 2026-04-25 03:28 |
|---|---|
| Airport | Sydney Kingsford Smith International Airport (YSSY) |
| Time | Latitude | Longitude | Altitude | Speed | Heading |
|---|---|---|---|---|---|
| 2026-04-25 02:31 | -35.30586 | 149.18981 | 1877 ft | 0 kts | 220° |
| 2026-04-25 02:45 | -35.30584 | 149.18983 | 1877 ft | 2 kts | 220° |
| 2026-04-25 02:46 | -35.30566 | 149.19006 | 1879 ft | 6 kts | 217° |
| 2026-04-25 02:46 | -35.30530 | 149.19005 | 1874 ft | 2 kts | 128° |
| 2026-04-25 02:46 | -35.30530 | 149.19004 | 1874 ft | 0 kts | 128° |
| 2026-04-25 02:48 | -35.30537 | 149.19016 | 1876 ft | 4 kts | 127° |
| 2026-04-25 02:49 | -35.30564 | 149.19056 | 1881 ft | 9 kts | 129° |
| 2026-04-25 02:49 | -35.30608 | 149.19119 | 1881 ft | 10 kts | 130° |
| 2026-04-25 02:49 | -35.30659 | 149.19194 | 1884 ft | 12 kts | 131° |
| 2026-04-25 02:49 | -35.30740 | 149.19238 | 1882 ft | 14 kts | 178° |
| 2026-04-25 02:50 | -35.30847 | 149.19238 | 1885 ft | 17 kts | 179° |
| 2026-04-25 02:50 | -35.30983 | 149.19238 | 1882 ft | 22 kts | 180° |
| 2026-04-25 02:50 | -35.31145 | 149.19236 | 1879 ft | 25 kts | 176° |
| 2026-04-25 02:50 | -35.31331 | 149.19237 | 1873 ft | 29 kts | 178° |
| 2026-04-25 02:51 | -35.31538 | 149.19239 | 1874 ft | 31 kts | 180° |
| 2026-04-25 02:51 | -35.31758 | 149.19238 | 1873 ft | 32 kts | 176° |
| 2026-04-25 02:51 | -35.31963 | 149.19261 | 1878 ft | 26 kts | 147° |
| 2026-04-25 02:51 | -35.32003 | 149.19323 | 1881 ft | 0 kts | 105° |
| 2026-04-25 02:52 | -35.32006 | 149.19333 | 1881 ft | 3 kts | 104° |
| 2026-04-25 02:52 | -35.32009 | 149.19373 | 1881 ft | 7 kts | 92° |
| 2026-04-25 02:53 | -35.31980 | 149.19438 | 1875 ft | 11 kts | 30° |
| 2026-04-25 02:53 | -35.31937 | 149.19445 | 1879 ft | 0 kts | 1° |
| 2026-04-25 02:53 | -35.31824 | 149.19445 | 1876 ft | 51 kts | 359° |
| 2026-04-25 02:54 | -35.31205 | 149.19445 | 1879 ft | 125 kts | 358° |
| 2026-04-25 02:54 | -35.30133 | 149.19460 | 2050 ft | 176 kts | 360° |
| 2026-04-25 02:54 | -35.28775 | 149.19494 | 2573 ft | 219 kts | 360° |
| 2026-04-25 02:54 | -35.27091 | 149.19612 | 3214 ft | 255 kts | 7° |
| 2026-04-25 02:55 | -35.25372 | 149.20007 | 4546 ft | 252 kts | 8° |
| 2026-04-25 02:55 | -35.23627 | 149.20242 | 5634 ft | 262 kts | 1° |
| 2026-04-25 02:55 | -35.21778 | 149.20278 | 6590 ft | 270 kts | 0° |
| 2026-04-25 02:55 | -35.19883 | 149.20379 | 7636 ft | 275 kts | 4° |
| 2026-04-25 02:56 | -35.17944 | 149.20620 | 8601 ft | 281 kts | 6° |
| 2026-04-25 02:56 | -35.15997 | 149.20974 | 9697 ft | 285 kts | 9° |
| 2026-04-25 02:56 | -35.13989 | 149.21422 | 10298 ft | 309 kts | 9° |
| 2026-04-25 02:56 | -35.11807 | 149.21784 | 10921 ft | 325 kts | 7° |
| 2026-04-25 02:57 | -35.09550 | 149.22434 | 11629 ft | 339 kts | 17° |
| 2026-04-25 02:57 | -35.08064 | 149.23077 | 12210 ft | 344 kts | 20° |
| 2026-04-25 02:57 | -35.05114 | 149.24561 | 13641 ft | 347 kts | 20° |
| 2026-04-25 02:57 | -35.02807 | 149.25549 | 14567 ft | 353 kts | 19° |
| 2026-04-25 02:58 | -35.00467 | 149.26557 | 15549 ft | 356 kts | 19° |
| 2026-04-25 02:58 | -34.98090 | 149.27606 | 16233 ft | 371 kts | 20° |
| 2026-04-25 02:58 | -34.95697 | 149.28693 | 17356 ft | 370 kts | 20° |
| 2026-04-25 02:58 | -34.94069 | 149.29450 | 17939 ft | 372 kts | 21° |
| 2026-04-25 02:59 | -34.90833 | 149.30990 | 18902 ft | 382 kts | 21° |
| 2026-04-25 02:59 | -34.89162 | 149.31805 | 19422 ft | 384 kts | 22° |
| 2026-04-25 02:59 | -34.85843 | 149.33427 | 20357 ft | 391 kts | 22° |
| 2026-04-25 02:59 | -34.84123 | 149.34249 | 20825 ft | 395 kts | 21° |
| 2026-04-25 03:00 | -34.81575 | 149.35451 | 21381 ft | 403 kts | 21° |
| 2026-04-25 03:00 | -34.79010 | 149.36654 | 21382 ft | 385 kts | 21° |
| 2026-04-25 03:00 | -34.76590 | 149.37791 | 21376 ft | 363 kts | 23° |
| 2026-04-25 03:00 | -34.74432 | 149.39210 | 21380 ft | 348 kts | 37° |
| 2026-04-25 03:01 | -34.72703 | 149.41228 | 21396 ft | 345 kts | 53° |
| 2026-04-25 03:01 | -34.71449 | 149.43709 | 21405 ft | 345 kts | 63° |
| 2026-04-25 03:01 | -34.70348 | 149.46303 | 21412 ft | 346 kts | 64° |
| 2026-04-25 03:01 | -34.69262 | 149.48908 | 21434 ft | 346 kts | 64° |
| 2026-04-25 03:02 | -34.68165 | 149.51510 | 21427 ft | 346 kts | 64° |
| 2026-04-25 03:02 | -34.67057 | 149.54114 | 21438 ft | 353 kts | 64° |
| 2026-04-25 03:02 | -34.65884 | 149.56858 | 21471 ft | 379 kts | 63° |
| 2026-04-25 03:02 | -34.64625 | 149.59795 | 21383 ft | 403 kts | 64° |
| 2026-04-25 03:03 | -34.63316 | 149.62855 | 21372 ft | 413 kts | 63° |
| 2026-04-25 03:03 | -34.61980 | 149.65964 | 21372 ft | 417 kts | 64° |
| 2026-04-25 03:03 | -34.60632 | 149.69093 | 21361 ft | 419 kts | 63° |
| 2026-04-25 03:03 | -34.59280 | 149.72230 | 21382 ft | 420 kts | 63° |
| 2026-04-25 03:04 | -34.57926 | 149.75378 | 21380 ft | 420 kts | 63° |
| 2026-04-25 03:04 | -34.56572 | 149.78522 | 21384 ft | 421 kts | 63° |
| 2026-04-25 03:04 | -34.55216 | 149.81665 | 21378 ft | 421 kts | 63° |
| 2026-04-25 03:05 | -34.52495 | 149.87953 | 21375 ft | 421 kts | 63° |
| 2026-04-25 03:05 | -34.51134 | 149.91095 | 21372 ft | 421 kts | 63° |
| 2026-04-25 03:05 | -34.49775 | 149.94232 | 21372 ft | 421 kts | 63° |
| 2026-04-25 03:05 | -34.48397 | 149.97364 | 21378 ft | 421 kts | 63° |
| 2026-04-25 03:06 | -34.47012 | 150.00488 | 21369 ft | 421 kts | 63° |
| 2026-04-25 03:06 | -34.45629 | 150.03607 | 21380 ft | 420 kts | 63° |
| 2026-04-25 03:06 | -34.44244 | 150.06729 | 21377 ft | 420 kts | 63° |
| 2026-04-25 03:06 | -34.42862 | 150.09846 | 21375 ft | 420 kts | 63° |
| 2026-04-25 03:07 | -34.41479 | 150.12965 | 21378 ft | 420 kts | 63° |
| 2026-04-25 03:07 | -34.40093 | 150.16082 | 21381 ft | 420 kts | 63° |
| 2026-04-25 03:07 | -34.38709 | 150.19197 | 21382 ft | 420 kts | 63° |
| 2026-04-25 03:07 | -34.37324 | 150.22308 | 21380 ft | 420 kts | 63° |
| 2026-04-25 03:08 | -34.35938 | 150.25420 | 21084 ft | 423 kts | 63° |
| 2026-04-25 03:08 | -34.34561 | 150.28511 | 20006 ft | 410 kts | 63° |
| 2026-04-25 03:08 | -34.33231 | 150.31491 | 18873 ft | 393 kts | 63° |
| 2026-04-25 03:08 | -34.31964 | 150.34329 | 18029 ft | 370 kts | 63° |
| 2026-04-25 03:09 | -34.30792 | 150.36946 | 17588 ft | 340 kts | 63° |
| 2026-04-25 03:09 | -34.29704 | 150.39381 | 17159 ft | 318 kts | 62° |
| 2026-04-25 03:09 | -34.28669 | 150.41696 | 16780 ft | 311 kts | 63° |
| 2026-04-25 03:09 | -34.27650 | 150.43973 | 16343 ft | 300 kts | 62° |
| 2026-04-25 03:10 | -34.26682 | 150.46132 | 15957 ft | 284 kts | 62° |
| 2026-04-25 03:10 | -34.25767 | 150.48174 | 15596 ft | 269 kts | 62° |
| 2026-04-25 03:10 | -34.24899 | 150.50122 | 15248 ft | 259 kts | 62° |
| 2026-04-25 03:10 | -34.24050 | 150.52024 | 14932 ft | 258 kts | 62° |
| 2026-04-25 03:11 | -34.23193 | 150.53950 | 14608 ft | 263 kts | 62° |
| 2026-04-25 03:11 | -34.22321 | 150.55898 | 14231 ft | 265 kts | 62° |
| 2026-04-25 03:11 | -34.21443 | 150.57857 | 13850 ft | 264 kts | 62° |
| 2026-04-25 03:11 | -34.20572 | 150.59797 | 13529 ft | 262 kts | 62° |
| 2026-04-25 03:12 | -34.19705 | 150.61729 | 13171 ft | 261 kts | 62° |
| 2026-04-25 03:12 | -34.18844 | 150.63647 | 12824 ft | 259 kts | 62° |
| 2026-04-25 03:12 | -34.17986 | 150.65558 | 12482 ft | 258 kts | 62° |
| 2026-04-25 03:12 | -34.17129 | 150.67462 | 12137 ft | 257 kts | 62° |
| 2026-04-25 03:13 | -34.16275 | 150.69360 | 11798 ft | 257 kts | 62° |
| 2026-04-25 03:13 | -34.15423 | 150.71254 | 11464 ft | 257 kts | 62° |
| 2026-04-25 03:13 | -34.14572 | 150.73145 | 11138 ft | 256 kts | 62° |
| 2026-04-25 03:13 | -34.13713 | 150.75053 | 10520 ft | 267 kts | 62° |
| 2026-04-25 03:14 | -34.12821 | 150.77037 | 10009 ft | 273 kts | 62° |
| 2026-04-25 03:14 | -34.11906 | 150.79062 | 9643 ft | 271 kts | 62° |
| 2026-04-25 03:14 | -34.11009 | 150.81048 | 9300 ft | 268 kts | 62° |
| 2026-04-25 03:14 | -34.10130 | 150.82994 | 9139 ft | 259 kts | 62° |
| 2026-04-25 03:15 | -34.09287 | 150.84864 | 9003 ft | 249 kts | 62° |
| 2026-04-25 03:15 | -34.08478 | 150.86662 | 8950 ft | 239 kts | 62° |
| 2026-04-25 03:15 | -34.07691 | 150.88409 | 8942 ft | 236 kts | 62° |
| 2026-04-25 03:15 | -34.06907 | 150.90152 | 9007 ft | 240 kts | 62° |
| 2026-04-25 03:16 | -34.06107 | 150.91928 | 9017 ft | 242 kts | 62° |
| 2026-04-25 03:16 | -34.05301 | 150.93713 | 9024 ft | 242 kts | 62° |
| 2026-04-25 03:16 | -34.04495 | 150.95492 | 9029 ft | 242 kts | 62° |
| 2026-04-25 03:16 | -34.03703 | 150.97253 | 9004 ft | 242 kts | 64° |
| 2026-04-25 03:17 | -34.03198 | 150.99169 | 9002 ft | 240 kts | 84° |
| 2026-04-25 03:17 | -34.03348 | 151.01154 | 9008 ft | 239 kts | 109° |
| 2026-04-25 03:17 | -34.04154 | 151.02893 | 9020 ft | 239 kts | 130° |
| 2026-04-25 03:17 | -34.05283 | 151.04370 | 9031 ft | 240 kts | 134° |
| 2026-04-25 03:18 | -34.06457 | 151.05814 | 8986 ft | 240 kts | 134° |
| 2026-04-25 03:18 | -34.07705 | 151.07193 | 8687 ft | 244 kts | 146° |
| 2026-04-25 03:18 | -34.09210 | 151.08030 | 8645 ft | 236 kts | 164° |
| 2026-04-25 03:18 | -34.10811 | 151.08500 | 8567 ft | 238 kts | 168° |
| 2026-04-25 03:19 | -34.12436 | 151.08904 | 8442 ft | 239 kts | 168° |
| 2026-04-25 03:19 | -34.14074 | 151.09312 | 8247 ft | 241 kts | 168° |
| 2026-04-25 03:19 | -34.15710 | 151.09725 | 8083 ft | 239 kts | 168° |
| 2026-04-25 03:19 | -34.17334 | 151.10143 | 7922 ft | 239 kts | 168° |
| 2026-04-25 03:20 | -34.18962 | 151.10565 | 7688 ft | 240 kts | 168° |
| 2026-04-25 03:20 | -34.20510 | 151.11271 | 7457 ft | 238 kts | 143° |
| 2026-04-25 03:20 | -34.21513 | 151.12811 | 7253 ft | 236 kts | 109° |
| 2026-04-25 03:20 | -34.21661 | 151.14767 | 6939 ft | 239 kts | 78° |
| 2026-04-25 03:21 | -34.21212 | 151.16694 | 6546 ft | 238 kts | 72° |
| 2026-04-25 03:21 | -34.20750 | 151.18594 | 6117 ft | 234 kts | 73° |
| 2026-04-25 03:21 | -34.20309 | 151.20453 | 5788 ft | 226 kts | 73° |
| 2026-04-25 03:21 | -34.19830 | 151.22224 | 5512 ft | 217 kts | 61° |
| 2026-04-25 03:22 | -34.18817 | 151.23464 | 5278 ft | 204 kts | 24° |
| 2026-04-25 03:22 | -34.17497 | 151.23895 | 5105 ft | 193 kts | 12° |
| 2026-04-25 03:22 | -34.16202 | 151.24083 | 4858 ft | 185 kts | 347° |
| 2026-04-25 03:22 | -34.15123 | 151.23330 | 4661 ft | 177 kts | 324° |
| 2026-04-25 03:23 | -34.14059 | 151.22665 | 4445 ft | 170 kts | 346° |
| 2026-04-25 03:23 | -34.12913 | 151.22407 | 4247 ft | 165 kts | 351° |
| 2026-04-25 03:23 | -34.11806 | 151.22107 | 4033 ft | 162 kts | 346° |
| 2026-04-25 03:23 | -34.10734 | 151.21794 | 3866 ft | 155 kts | 348° |
| 2026-04-25 03:24 | -34.09689 | 151.21534 | 3688 ft | 151 kts | 349° |
| 2026-04-25 03:24 | -34.08666 | 151.21266 | 3498 ft | 150 kts | 348° |
| 2026-04-25 03:24 | -34.07645 | 151.20996 | 3322 ft | 150 kts | 348° |
| 2026-04-25 03:24 | -34.06624 | 151.20730 | 3101 ft | 151 kts | 348° |
| 2026-04-25 03:25 | -34.05624 | 151.20469 | 2884 ft | 148 kts | 349° |
| 2026-04-25 03:25 | -34.04650 | 151.20214 | 2639 ft | 137 kts | 348° |
| 2026-04-25 03:25 | -34.03731 | 151.19975 | 2217 ft | 129 kts | 348° |
| 2026-04-25 03:25 | -34.02878 | 151.19751 | 1811 ft | 123 kts | 349° |
| 2026-04-25 03:26 | -34.02054 | 151.19536 | 1448 ft | 123 kts | 349° |
| 2026-04-25 03:26 | -34.01212 | 151.19317 | 1097 ft | 124 kts | 349° |
| 2026-04-25 03:26 | -34.00377 | 151.19097 | 841 ft | 121 kts | 351° |
| 2026-04-25 03:26 | -33.99538 | 151.18880 | 692 ft | 124 kts | 352° |
| 2026-04-25 03:27 | -33.98673 | 151.18651 | 514 ft | 131 kts | 349° |
| 2026-04-25 03:27 | -33.97777 | 151.18424 | 355 ft | 132 kts | 352° |
| 2026-04-25 03:27 | -33.96873 | 151.18175 | 159 ft | 132 kts | 352° |
| 2026-04-25 03:27 | -33.95975 | 151.17951 | 20 ft | 124 kts | 350° |
| 2026-04-25 03:28 | -33.95249 | 151.17760 | 22 ft | 86 kts | 347° |
| 2026-04-25 03:28 | -33.94807 | 151.17644 | 21 ft | 53 kts | 349° |
| 2026-04-25 03:28 | -33.94487 | 151.17512 | 24 ft | 47 kts | 329° |
| 2026-04-25 03:28 | -33.94317 | 151.17343 | 25 ft | 0 kts | 320° |
| 2026-04-25 03:31 | -33.94303 | 151.17329 | 24 ft | 6 kts | 322° |
| 2026-04-25 03:31 | -33.94252 | 151.17299 | 22 ft | 11 kts | 343° |
| 2026-04-25 03:31 | -33.94162 | 151.17275 | 21 ft | 15 kts | 348° |
| 2026-04-25 03:31 | -33.94051 | 151.17244 | 20 ft | 18 kts | 346° |
| 2026-04-25 03:32 | -33.93912 | 151.17208 | 16 ft | 23 kts | 347° |
| 2026-04-25 03:32 | -33.93749 | 151.17167 | 15 ft | 18 kts | 344° |
| 2026-04-25 03:32 | -33.93711 | 151.17082 | 19 ft | 11 kts | 276° |
| 2026-04-25 03:32 | -33.93722 | 151.16980 | 20 ft | 13 kts | 254° |
| 2026-04-25 03:33 | -33.93731 | 151.16939 | 20 ft | 0 kts | 254° |